Time;durP1;ratioP1;P1;durP2;ratioP2;P2;SDS_P1;SDS_P2;PMS_P1;PMS_P2;Temp;Humidity;BMP_temperature;BMP_pressure;BME280_temperature;BME280_humidity;BME280_pressure;Samples;Min_cycle;Max_cycle;Signal;HPM_P1;HPM_P2
2023/01/21 00:00:50;;;;;;;3.20;2.90;;;0.90;99.90;;;1.43;100.00;98409.00;5040939;28;20950;-81
2023/01/21 00:03:19;;;;;;;4.80;3.20;;;0.90;99.90;;;1.42;100.00;98415.09;5048025;28;20473;-81
2023/01/21 00:05:49;;;;;;;3.27;2.97;;;0.90;99.90;;;1.43;100.00;98410.75;5044148;28;20464;-80
2023/01/21 00:08:20;;;;;;;3.80;3.13;;;0.90;99.90;;;1.43;100.00;98418.50;5037622;28;20466;-81
2023/01/21 00:10:50;;;;;;;3.83;2.50;;;0.90;99.90;;;1.43;100.00;98411.59;5040138;28;20461;-81
2023/01/21 00:13:20;;;;;;;3.37;3.00;;;0.90;99.90;;;1.37;100.00;98417.22;5038279;28;20467;-81
2023/01/21 00:15:49;;;;;;;4.57;3.60;;;0.90;99.90;;;1.40;100.00;98426.47;5038945;28;20485;-81
2023/01/21 00:18:20;;;;;;;5.60;3.30;;;0.90;99.90;;;1.38;100.00;98418.88;5039966;28;20462;-81
2023/01/21 00:20:50;;;;;;;5.37;4.43;;;0.90;99.90;;;1.35;100.00;98429.44;5038767;28;20515;-80
2023/01/21 00:23:20;;;;;;;4.83;4.43;;;0.80;99.90;;;1.31;100.00;98430.59;5038420;28;20467;-81
2023/01/21 00:25:49;;;;;;;3.87;3.47;;;0.80;99.90;;;1.32;100.00;98434.00;5041337;28;20508;-81
2023/01/21 00:28:20;;;;;;;6.53;4.67;;;0.90;99.90;;;1.30;100.00;98436.69;5040264;28;21515;-80
2023/01/21 00:30:50;;;;;;;4.70;4.17;;;0.80;99.90;;;1.32;100.00;98442.50;5037296;28;20550;-80
2023/01/21 00:33:21;;;;;;;6.13;4.00;;;0.80;99.90;;;1.29;100.00;98445.34;5039261;28;20470;-81
2023/01/21 00:35:59;;;;;;;7.83;4.20;;;0.80;99.90;;;1.28;100.00;98443.72;5042990;28;20459;-81
2023/01/21 00:38:28;;;;;;;4.53;4.07;;;0.90;99.90;;;1.30;100.00;98446.16;5037801;28;20460;-81
2023/01/21 00:41:03;;;;;;;5.30;3.97;;;0.80;99.90;;;1.30;100.00;98446.97;5040170;28;20915;-80
2023/01/21 00:43:33;;;;;;;4.90;4.07;;;0.80;99.90;;;1.31;100.00;98451.19;5042263;28;20829;-80
2023/01/21 00:46:02;;;;;;;6.83;4.40;;;0.80;99.90;;;1.32;100.00;98450.25;5040297;28;21123;-82
2023/01/21 00:48:32;;;;;;;3.80;3.37;;;0.80;99.90;;;1.30;100.00;98449.56;5040611;28;20468;-81
2023/01/21 00:51:02;;;;;;;4.70;3.80;;;0.90;99.90;;;1.30;100.00;98452.13;5043165;28;20526;-81
2023/01/21 00:53:33;;;;;;;4.50;3.37;;;0.80;99.90;;;1.31;100.00;98453.78;5041431;28;20462;-80
2023/01/21 00:56:05;;;;;;;4.00;2.57;;;0.80;99.90;;;1.31;100.00;98464.09;5040945;28;20493;-81
2023/01/21 00:58:36;;;;;;;5.17;3.47;;;0.90;99.90;;;1.28;100.00;98464.31;5037722;28;20546;-81
2023/01/21 01:01:09;;;;;;;4.67;3.20;;;0.80;99.90;;;1.29;100.00;98465.94;5041623;28;20545;-81
2023/01/21 01:03:40;;;;;;;4.10;3.70;;;0.80;99.90;;;1.27;100.00;98475.56;5037848;28;20471;-80
2023/01/21 01:06:13;;;;;;;3.13;2.80;;;0.80;99.90;;;1.26;100.00;98475.66;5038558;28;20462;-80
2023/01/21 01:08:44;;;;;;;3.40;3.10;;;0.80;99.90;;;1.26;100.00;98481.63;5036018;28;20467;-80
2023/01/21 01:11:14;;;;;;;7.83;3.33;;;0.80;99.90;;;1.27;100.00;98485.84;5037375;28;20542;-81
2023/01/21 01:13:45;;;;;;;3.90;3.30;;;0.80;99.90;;;1.23;100.00;98483.63;5038434;28;20543;-81
2023/01/21 01:16:15;;;;;;;2.80;2.43;;;0.80;99.90;;;1.22;100.00;98484.56;5039184;28;20471;-80
2023/01/21 01:18:45;;;;;;;5.00;3.83;;;0.80;99.90;;;1.21;100.00;98488.91;5039041;28;20893;-81
2023/01/21 01:21:17;;;;;;;5.40;3.40;;;0.70;99.90;;;1.23;100.00;98487.03;5037576;28;20489;-80
2023/01/21 01:23:48;;;;;;;4.10;3.03;;;0.80;99.90;;;1.22;100.00;98498.25;5038603;28;20471;-80
2023/01/21 01:26:20;;;;;;;2.93;2.73;;;0.70;99.90;;;1.22;100.00;98503.41;5037734;28;20503;-81
2023/01/21 01:28:53;;;;;;;3.03;2.57;;;0.70;99.90;;;1.25;100.00;98505.75;5037080;28;20453;-80
2023/01/21 01:31:22;;;;;;;5.20;3.23;;;0.80;99.90;;;1.20;100.00;98502.72;5035859;28;20557;-81
2023/01/21 01:33:52;;;;;;;3.50;2.60;;;0.80;99.90;;;1.21;100.00;98509.50;5036801;28;20850;-81
2023/01/21 01:36:23;;;;;;;3.33;3.00;;;0.80;99.90;;;1.22;100.00;98515.47;5033550;28;20496;-80
2023/01/21 01:38:55;;;;;;;2.80;2.47;;;0.70;99.90;;;1.20;100.00;98517.34;5036311;28;21015;-80
2023/01/21 01:41:28;;;;;;;2.97;2.70;;;0.80;99.90;;;1.19;100.00;98526.81;5034052;28;20463;-81
2023/01/21 01:44:02;;;;;;;3.30;2.90;;;0.70;99.90;;;1.17;100.00;98533.84;5037291;28;20480;-81
2023/01/21 01:46:33;;;;;;;3.67;3.00;;;0.80;99.90;;;1.17;100.00;98531.28;5037563;28;21348;-81
2023/01/21 01:49:12;;;;;;;2.60;2.40;;;0.70;99.90;;;1.18;100.00;98535.47;5037089;28;20468;-81
2023/01/21 01:51:50;;;;;;;2.53;2.33;;;0.80;99.90;;;1.13;100.00;98542.75;5033699;28;20467;-81
2023/01/21 01:54:28;;;;;;;3.00;2.70;;;0.70;99.90;;;1.14;100.00;98548.72;5036103;28;20467;-81
2023/01/21 01:57:02;;;;;;;2.77;2.57;;;0.70;99.90;;;1.09;100.00;98541.31;5036708;28;20602;-81
2023/01/21 01:59:34;;;;;;;2.90;2.57;;;0.70;99.90;;;1.08;100.00;98539.69;5035015;28;20468;-80
2023/01/21 02:02:09;;;;;;;2.87;2.57;;;0.70;99.90;;;1.08;100.00;98551.75;5034883;28;20497;-81
2023/01/21 02:04:45;;;;;;;2.53;2.33;;;0.70;99.90;;;1.06;100.00;98557.00;5036661;28;21201;-80
2023/01/21 02:07:16;;;;;;;2.87;2.57;;;0.70;99.90;;;1.06;100.00;98561.34;5039018;28;20572;-80
2023/01/21 02:09:45;;;;;;;2.90;2.50;;;0.60;99.90;;;1.05;100.00;98563.09;5034960;28;20457;-80
2023/01/21 02:12:14;;;;;;;3.00;2.70;;;0.60;99.90;;;1.04;100.00;98569.19;5034348;28;21519;-80
2023/01/21 02:14:47;;;;;;;2.20;2.00;;;0.60;99.90;;;1.04;100.00;98574.34;5036989;28;20511;-80
2023/01/21 02:17:35;;;;;;;2.33;2.17;;;0.60;99.90;;;1.04;100.00;98584.63;5038791;28;20591;-80
2023/01/21 02:21:22;;;;;;;2.87;2.40;;;0.60;99.90;;;1.03;100.00;98588.13;5038650;28;20465;-81
2023/01/21 02:24:33;;;;;;;2.77;2.33;;;0.70;99.90;;;1.03;100.00;98583.00;5030078;28;20517;-80
2023/01/21 02:27:36;;;;;;;1.90;1.80;;;0.60;99.90;;;1.00;100.00;98586.63;5038481;28;20527;-80
2023/01/21 02:31:02;;;;;;;2.17;1.80;;;0.60;99.90;;;0.98;100.00;98587.66;5040141;28;20461;-80
2023/01/21 02:33:54;;;;;;;1.90;1.70;;;0.60;99.90;;;0.93;100.00;98588.00;5038674;28;20468;-80
2023/01/21 02:36:42;;;;;;;1.90;1.80;;;0.60;99.90;;;0.92;100.00;98600.97;5038652;28;20465;-81
2023/01/21 02:39:26;;;;;;;1.90;1.80;;;0.60;99.90;;;0.91;100.00;98597.56;5037710;28;21146;-80
2023/01/21 02:42:07;;;;;;;2.07;1.63;;;0.50;99.90;;;0.89;100.00;98598.63;5039183;28;20464;-80
2023/01/21 02:44:41;;;;;;;2.20;2.00;;;0.60;99.90;;;0.86;100.00;98607.41;5037056;28;20970;-81
2023/01/21 02:47:22;;;;;;;1.80;1.70;;;0.60;99.90;;;0.84;100.00;98606.69;5035732;28;20529;-80
2023/01/21 02:49:59;;;;;;;1.70;1.60;;;0.50;99.90;;;0.82;100.00;98621.44;5034926;28;21041;-80
2023/01/21 02:52:29;;;;;;;2.00;1.87;;;0.40;99.90;;;0.80;100.00;98622.47;5033686;28;20467;-80
2023/01/21 02:55:01;;;;;;;1.63;1.47;;;0.50;99.90;;;0.76;100.00;98624.47;5035472;28;20467;-80
2023/01/21 02:57:42;;;;;;;1.40;1.30;;;0.40;99.90;;;0.79;100.00;98641.41;5034332;28;20468;-80
2023/01/21 03:00:20;;;;;;;1.13;1.13;;;0.30;99.90;;;0.77;100.00;98632.97;5031230;28;20464;-80
2023/01/21 03:03:39;;;;;;;1.30;1.20;;;0.40;99.90;;;0.76;100.00;98632.19;5035074;28;20487;-80
2023/01/21 03:06:47;;;;;;;1.00;1.00;;;0.40;99.90;;;0.77;100.00;98632.97;5035050;28;20523;-80
2023/01/21 03:09:24;;;;;;;0.90;0.90;;;0.40;99.90;;;0.72;100.00;98635.06;5036247;28;20541;-80
2023/01/21 03:12:13;;;;;;;1.00;1.00;;;0.40;99.90;;;0.74;100.00;98648.63;5036624;28;20471;-80
2023/01/21 03:17:48;;;;;;;1.17;1.10;;;0.40;99.90;;;0.72;100.00;98655.66;5036685;28;20554;-80
2023/01/21 03:20:25;;;;;;;1.23;1.10;;;0.40;99.90;;;0.69;100.00;98655.88;5034707;28;20490;-80
2023/01/21 03:23:02;;;;;;;0.80;0.80;;;0.30;99.90;;;0.69;100.00;98663.59;5036779;28;20503;-79
2023/01/21 03:25:35;;;;;;;1.20;1.10;;;0.30;99.90;;;0.68;100.00;98669.66;5037259;28;20534;-80
2023/01/21 03:28:12;;;;;;;0.90;0.90;;;0.30;99.90;;;0.67;100.00;98673.16;5036421;28;20466;-79
2023/01/21 03:30:46;;;;;;;1.07;1.00;;;0.20;99.90;;;0.67;100.00;98679.13;5034528;28;20467;-79
2023/01/21 03:33:20;;;;;;;1.30;1.20;;;0.30;99.90;;;0.66;100.00;98681.84;5035744;28;20460;-80
2023/01/21 03:35:55;;;;;;;0.97;0.90;;;0.30;99.90;;;0.67;100.00;98678.31;5036319;28;20464;-80
2023/01/21 03:38:36;;;;;;;1.70;1.23;;;0.30;99.90;;;0.69;100.00;98679.03;5033452;28;20465;-80
2023/01/21 03:41:13;;;;;;;1.33;1.23;;;0.30;99.90;;;0.70;100.00;98689.22;5035170;28;20465;-79
2023/01/21 03:43:45;;;;;;;1.30;1.20;;;0.30;99.90;;;0.71;100.00;98697.75;5036068;28;20605;-80
2023/01/21 03:46:22;;;;;;;1.47;1.30;;;0.30;99.90;;;0.67;100.00;98698.91;5036015;28;20849;-80
2023/01/21 03:49:00;;;;;;;1.87;1.43;;;0.30;99.90;;;0.65;100.00;98700.78;5033422;28;21257;-80
2023/01/21 03:51:37;;;;;;;1.70;1.60;;;0.30;99.90;;;0.64;100.00;98704.25;5038476;28;20539;-79
2023/01/21 03:54:09;;;;;;;1.70;1.60;;;0.30;99.90;;;0.64;100.00;98709.41;5034365;28;20477;-79
2023/01/21 03:56:40;;;;;;;2.00;1.80;;;0.30;99.90;;;0.64;100.00;98707.66;5037768;28;20468;-79
2023/01/21 03:59:10;;;;;;;2.20;2.00;;;0.30;99.90;;;0.64;100.00;98717.13;5036479;28;20499;-80
2023/01/21 04:01:40;;;;;;;2.53;1.63;;;0.30;99.90;;;0.66;100.00;98725.56;5037477;28;20493;-79
2023/01/21 04:04:10;;;;;;;2.60;2.40;;;0.30;99.90;;;0.66;100.00;98723.00;5035924;28;20499;-79
2023/01/21 04:06:39;;;;;;;2.37;2.10;;;0.30;99.90;;;0.67;100.00;98730.59;5034590;28;20491;-79
2023/01/21 04:09:12;;;;;;;2.60;2.40;;;0.30;99.90;;;0.70;100.00;98724.41;5038067;28;21225;-79
2023/01/21 04:11:41;;;;;;;4.33;2.90;;;0.30;99.90;;;0.72;100.00;98727.72;5033824;28;20545;-76
2023/01/21 04:14:11;;;;;;;2.43;2.17;;;0.30;99.90;;;0.67;100.00;98735.75;5034394;28;20560;-80
2023/01/21 04:16:41;;;;;;;2.93;2.70;;;0.30;99.90;;;0.67;100.00;98734.91;5032993;28;20461;-81
2023/01/21 04:19:12;;;;;;;2.83;2.60;;;0.40;99.90;;;0.65;100.00;98741.94;5032475;28;20469;-80
2023/01/21 04:21:41;;;;;;;2.50;2.30;;;0.30;99.90;;;0.64;100.00;98740.28;5033853;28;20473;-79
2023/01/21 04:24:13;;;;;;;2.60;2.40;;;0.30;99.90;;;0.66;100.00;98748.75;5034617;28;21014;-79
2023/01/21 04:26:43;;;;;;;3.03;2.73;;;0.30;99.90;;;0.63;100.00;98760.03;5032967;28;20464;-75
2023/01/21 04:29:13;;;;;;;2.57;2.03;;;0.30;99.90;;;0.62;100.00;98763.56;5034310;28;21043;-80
2023/01/21 04:31:43;;;;;;;3.00;2.80;;;0.20;99.90;;;0.64;100.00;98768.59;5033019;28;20548;-80
2023/01/21 04:34:13;;;;;;;3.43;2.80;;;0.20;99.90;;;0.65;100.00;98771.06;5036780;28;20544;-80
2023/01/21 04:36:43;;;;;;;4.93;3.00;;;0.30;99.90;;;0.65;100.00;98772.81;5035607;28;20449;-80
2023/01/21 04:39:14;;;;;;;5.73;2.90;;;0.30;99.90;;;0.63;100.00;98779.81;5038951;28;20563;-80
2023/01/21 04:41:44;;;;;;;3.03;2.73;;;0.30;99.90;;;0.62;100.00;98778.19;5040812;28;20528;-80
2023/01/21 04:44:13;;;;;;;7.50;4.20;;;0.30;99.90;;;0.61;100.00;98781.66;5036829;28;20624;-80
2023/01/21 04:46:43;;;;;;;9.67;6.10;;;0.30;99.90;;;0.62;100.00;98788.47;5035301;28;20491;-79
2023/01/21 04:49:13;;;;;;;7.30;5.10;;;0.20;99.90;;;0.64;100.00;98789.16;5034833;28;20553;-80
2023/01/21 04:51:44;;;;;;;8.77;5.70;;;0.30;99.90;;;0.67;100.00;98791.53;5033133;28;20461;-80
2023/01/21 04:54:15;;;;;;;9.33;5.30;;;0.30;99.90;;;0.65;100.00;98799.38;5039700;28;20468;-80
2023/01/21 04:56:45;;;;;;;6.63;4.90;;;0.20;99.90;;;0.66;100.00;98798.41;5040373;28;20469;-80
2023/01/21 04:59:15;;;;;;;6.90;5.67;;;0.30;99.90;;;0.67;100.00;98800.06;5041426;28;20473;-79
2023/01/21 05:01:46;;;;;;;9.50;6.17;;;0.30;99.90;;;0.68;100.00;98801.72;5040987;28;20577;-79
2023/01/21 05:04:17;;;;;;;28.33;13.43;;;0.30;99.90;;;0.72;100.00;98794.63;5034176;28;20647;-81
2023/01/21 05:06:47;;;;;;;16.60;8.50;;;0.30;99.90;;;0.70;100.00;98804.19;5035119;28;20494;-79
2023/01/21 05:09:18;;;;;;;9.13;5.40;;;0.40;99.90;;;0.71;100.00;98816.94;5037419;28;20501;-80
2023/01/21 05:11:47;;;;;;;11.17;6.50;;;0.30;99.90;;;0.69;100.00;98815.41;5038254;28;20465;-79
2023/01/21 05:14:17;;;;;;;10.13;7.27;;;0.30;99.90;;;0.71;100.00;98827.25;5034962;28;21101;-79
2023/01/21 05:16:46;;;;;;;10.03;6.53;;;0.40;99.90;;;0.71;100.00;98829.00;5037024;28;20462;-79
2023/01/21 05:19:16;;;;;;;10.90;6.47;;;0.40;99.90;;;0.68;100.00;98836.94;5036749;28;20559;-81
2023/01/21 05:21:44;;;;;;;10.40;6.77;;;0.30;99.90;;;0.66;100.00;98831.88;5036536;28;20560;-78
2023/01/21 05:24:16;;;;;;;8.33;5.67;;;0.40;99.90;;;0.63;100.00;98826.94;5035060;28;20492;-79
2023/01/21 05:26:48;;;;;;;15.13;7.00;;;0.40;99.90;;;0.62;100.00;98837.34;5037225;28;20499;-79
2023/01/21 05:29:17;;;;;;;11.17;6.27;;;0.30;99.90;;;0.62;100.00;98839.94;5038630;28;20900;-80
2023/01/21 05:31:47;;;;;;;11.20;6.77;;;0.30;99.90;;;0.62;100.00;98840.75;5039654;28;20828;-80
2023/01/21 05:34:18;;;;;;;12.00;7.43;;;0.30;99.90;;;0.63;100.00;98846.69;5038593;28;20461;-79
2023/01/21 05:36:49;;;;;;;11.00;6.80;;;0.30;99.90;;;0.59;100.00;98847.84;5042521;28;20467;-78
2023/01/21 05:39:20;;;;;;;8.90;6.17;;;0.30;99.90;;;0.52;100.00;98850.81;5040336;28;20851;-80
2023/01/21 05:41:49;;;;;;;8.07;5.60;;;0.20;99.90;;;0.54;100.00;98857.63;5041698;28;20505;-80
2023/01/21 05:44:19;;;;;;;8.50;5.70;;;0.20;99.90;;;0.55;100.00;98859.28;5040547;28;21161;-80
2023/01/21 05:46:49;;;;;;;11.13;7.40;;;0.20;99.90;;;0.56;100.00;98866.06;5039934;28;20506;-80
2023/01/21 05:49:19;;;;;;;10.10;6.53;;;0.20;99.90;;;0.55;100.00;98867.81;5039371;28;20491;-80
2023/01/21 05:51:50;;;;;;;10.87;6.43;;;0.10;99.90;;;0.56;100.00;98874.59;5039254;28;20462;-80
2023/01/21 05:54:21;;;;;;;10.57;6.27;;;0.20;99.90;;;0.59;100.00;98881.31;5038598;28;20470;-80
2023/01/21 05:56:50;;;;;;;8.83;5.70;;;0.20;99.90;;;0.57;100.00;98883.97;5041343;28;20868;-80
2023/01/21 05:59:21;;;;;;;10.40;5.30;;;0.10;99.90;;;0.60;100.00;98888.06;5039054;28;20466;-80
2023/01/21 06:01:51;;;;;;;8.67;5.33;;;0.20;99.90;;;0.54;100.00;98893.66;5039895;28;20468;-80
2023/01/21 06:04:27;;;;;;;9.03;5.50;;;0.10;99.90;;;0.43;100.00;98895.19;5037962;28;20486;-80
2023/01/21 06:06:58;;;;;;;8.30;4.80;;;0.10;99.90;;;0.36;100.00;98888.81;5038667;28;20468;-80
2023/01/21 06:09:28;;;;;;;6.73;5.50;;;0.00;99.90;;;0.37;100.00;98898.19;5041101;28;20488;-80
2023/01/21 06:11:58;;;;;;;9.80;5.93;;;0.00;99.90;;;0.34;100.00;98907.84;5040310;28;21233;-81
2023/01/21 06:14:28;;;;;;;12.80;5.57;;;-0.10;99.90;;;0.36;100.00;98908.56;5040119;28;20547;-80
2023/01/21 06:16:57;;;;;;;8.63;5.70;;;-0.10;99.90;;;0.37;100.00;98917.94;5040278;28;20528;-80
2023/01/21 06:19:26;;;;;;;9.77;5.73;;;-0.10;99.90;;;0.34;100.00;98924.09;5041211;28;20463;-80
2023/01/21 06:21:57;;;;;;;5.80;4.50;;;-0.10;99.90;;;0.32;100.00;98925.94;5039599;28;20474;-80
2023/01/21 06:24:26;;;;;;;8.20;5.40;;;-0.10;99.90;;;0.30;100.00;98942.41;5040379;28;20493;-80
2023/01/21 06:26:58;;;;;;;10.90;5.50;;;-0.10;99.90;;;0.27;100.00;98938.28;5039248;28;20471;-80
2023/01/21 06:29:28;;;;;;;10.10;6.00;;;-0.10;99.90;;;0.21;100.00;98941.25;5037399;28;20465;-80
2023/01/21 06:31:57;;;;;;;12.60;5.93;;;-0.20;99.90;;;0.19;100.00;98950.81;5040632;28;20462;-80
2023/01/21 06:34:26;;;;;;;9.20;5.80;;;-0.20;99.90;;;0.18;100.00;98940.63;5040053;28;20570;-80
2023/01/21 06:36:57;;;;;;;11.23;5.90;;;-0.20;99.90;;;0.15;100.00;98944.22;5041850;28;20475;-80
2023/01/21 06:39:27;;;;;;;8.60;4.93;;;-0.20;99.90;;;0.13;100.00;98953.78;5039287;28;20497;-80
2023/01/21 06:41:58;;;;;;;12.10;6.20;;;-0.30;99.90;;;0.10;100.00;98958.31;5040268;28;20463;-80
2023/01/21 06:44:27;;;;;;;9.63;5.87;;;-0.30;99.90;;;0.06;100.00;98962.81;5035394;28;20503;-80
2023/01/21 06:46:58;;;;;;;7.23;5.20;;;-0.40;99.90;;;0.10;100.00;98964.28;5037750;28;20462;-80
2023/01/21 06:49:30;;;;;;;8.27;5.10;;;-0.30;99.90;;;0.04;100.00;98962.09;5039310;28;20489;-80
2023/01/21 06:52:00;;;;;;;10.33;5.67;;;-0.30;99.90;;;0.05;100.00;98961.16;5036970;28;20545;-80
2023/01/21 06:54:29;;;;;;;11.83;6.20;;;-0.40;99.90;;;0.04;100.00;98956.94;5041092;28;20471;-80
2023/01/21 06:57:00;;;;;;;8.67;5.80;;;-0.40;99.90;;;0.05;100.00;98968.06;5037898;28;20473;-80
2023/01/21 06:59:29;;;;;;;7.37;5.80;;;-0.50;99.90;;;0.03;100.00;98964.78;5038439;28;20473;-80
2023/01/21 07:01:59;;;;;;;11.50;5.37;;;-0.50;99.90;;;0.03;100.00;98969.91;5038486;28;20469;-80
2023/01/21 07:04:28;;;;;;;11.70;5.30;;;-0.60;99.90;;;0.00;100.00;98976.09;5039521;28;21017;-80
2023/01/21 07:06:58;;;;;;;8.13;5.43;;;-0.50;99.90;;;-0.02;100.00;98978.72;5039728;28;20493;-80
2023/01/21 07:09:28;;;;;;;12.80;5.80;;;-0.60;99.90;;;-0.07;100.00;98974.81;5038143;28;20503;-80
2023/01/21 07:11:59;;;;;;;7.90;5.80;;;-0.70;99.90;;;-0.10;100.00;98975.00;5037657;28;20460;-80
2023/01/21 07:14:29;;;;;;;8.00;4.80;;;-0.80;99.90;;;-0.16;100.00;98972.81;5038689;28;20945;-80
2023/01/21 07:17:00;;;;;;;8.13;4.97;;;-0.80;99.90;;;-0.18;100.00;98982.38;5036430;28;20471;-80
2023/01/21 07:19:29;;;;;;;9.50;5.97;;;-0.80;99.90;;;-0.20;100.00;98984.22;5036938;28;20493;-80
2023/01/21 07:22:00;;;;;;;6.77;5.30;;;-0.80;99.90;;;-0.35;100.00;98987.75;5038804;28;20471;-81
2023/01/21 07:24:29;;;;;;;11.60;5.70;;;-1.10;99.90;;;-0.33;100.00;98999.56;5037772;28;20474;-80
2023/01/21 07:27:01;;;;;;;9.00;6.03;;;-1.00;99.90;;;-0.36;100.00;98993.81;5038596;28;20485;-80
2023/01/21 07:29:31;;;;;;;9.23;5.77;;;-1.10;99.90;;;-0.39;100.00;98988.84;5036570;28;20463;-80
2023/01/21 07:32:01;;;;;;;7.23;5.63;;;-1.10;99.90;;;-0.42;100.00;98997.59;5036313;28;20472;-80
2023/01/21 07:34:32;;;;;;;9.60;5.93;;;-1.10;99.90;;;-0.55;100.00;98996.66;5040405;28;20466;-80
2023/01/21 07:37:02;;;;;;;9.40;5.33;;;-1.30;99.90;;;-0.62;100.00;98998.78;5039981;28;20851;-82
2023/01/21 07:39:31;;;;;;;11.00;5.70;;;-1.40;99.90;;;-0.67;100.00;99000.84;5038345;28;20589;-80
2023/01/21 07:42:03;;;;;;;10.83;6.67;;;-1.40;99.90;;;-0.84;100.00;99011.28;5038957;28;20470;-80
2023/01/21 07:44:33;;;;;;;7.63;4.43;;;-1.60;99.90;;;-0.98;100.00;99007.91;5038219;28;20466;-80
2023/01/21 07:47:03;;;;;;;8.80;5.90;;;-1.80;99.90;;;-0.99;100.00;99017.34;5037621;28;20468;-80
2023/01/21 07:49:33;;;;;;;15.87;6.03;;;-1.70;99.90;;;-0.95;100.00;99016.25;5038861;28;20504;-80
2023/01/21 07:52:03;;;;;;;9.00;5.67;;;-1.60;99.90;;;-1.03;100.00;99021.00;5036000;28;20498;-80
2023/01/21 07:54:33;;;;;;;13.80;5.80;;;-1.70;99.90;;;-1.09;100.00;99021.34;5040026;28;20546;-80
2023/01/21 07:57:03;;;;;;;11.00;6.30;;;-1.80;99.90;;;-1.06;100.00;99023.75;5037090;28;20473;-80
2023/01/21 07:59:33;;;;;;;10.07;5.47;;;-1.80;99.90;;;-1.06;100.00;99036.56;5038955;28;20544;-80
2023/01/21 08:02:02;;;;;;;10.53;6.30;;;-1.90;99.90;;;-1.06;100.00;99034.00;5036331;28;20975;-81
2023/01/21 08:04:31;;;;;;;13.83;6.73;;;-1.80;99.90;;;-1.10;100.00;99027.41;5038750;28;20470;-80
2023/01/21 08:07:07;;;;;;;8.70;5.40;;;-1.90;99.90;;;-1.15;100.00;99029.44;5037888;28;20490;-80
2023/01/21 08:09:40;;;;;;;9.60;6.17;;;-2.00;99.90;;;-1.21;100.00;99034.88;5036365;28;20458;-80
2023/01/21 08:12:11;;;;;;;10.43;6.40;;;-2.10;99.90;;;-1.18;100.00;99040.66;5037350;28;20489;-80
2023/01/21 08:14:42;;;;;;;10.17;5.73;;;-2.00;99.90;;;-1.21;100.00;99043.41;5039910;28;20474;-80
2023/01/21 08:17:13;;;;;;;10.07;5.03;;;-2.00;99.90;;;-1.26;100.00;99044.59;5041719;28;20468;-80
2023/01/21 08:19:42;;;;;;;13.20;6.93;;;-1.90;99.90;;;-1.25;100.00;99046.28;5039026;28;20461;-80
2023/01/21 08:22:13;;;;;;;11.30;6.23;;;-1.90;99.90;;;-1.29;100.00;99055.88;5042188;28;20985;-81
2023/01/21 08:24:42;;;;;;;12.10;7.27;;;-1.90;99.90;;;-1.31;100.00;99054.28;5040351;28;20493;-81
2023/01/21 08:27:13;;;;;;;12.33;6.50;;;-1.90;99.90;;;-1.34;100.00;99059.59;5040985;28;20588;-80
2023/01/21 08:29:43;;;;;;;8.53;6.10;;;-1.90;99.90;;;-1.37;100.00;99058.03;5042159;28;20552;-80
2023/01/21 08:32:13;;;;;;;11.67;6.87;;;-1.90;99.90;;;-1.30;100.00;99058.53;5040420;28;20503;-81
2023/01/21 08:34:42;;;;;;;9.20;5.37;;;-1.90;99.90;;;-1.29;100.00;99068.72;5042026;28;20544;-80
2023/01/21 08:37:11;;;;;;;9.23;6.10;;;-1.80;99.90;;;-1.29;100.00;99067.88;5042184;28;20989;-80
2023/01/21 08:39:41;;;;;;;11.97;7.03;;;-1.70;99.90;;;-1.33;100.00;99069.78;5042067;28;20513;-80
2023/01/21 08:42:09;;;;;;;14.07;7.90;;;-1.80;99.90;;;-1.34;100.00;99073.25;5041448;28;20983;-81
2023/01/21 08:44:40;;;;;;;8.50;5.97;;;-1.90;99.90;;;-1.37;100.00;99081.13;5040296;28;20662;-81
2023/01/21 08:47:11;;;;;;;9.33;5.10;;;-1.90;99.90;;;-1.38;100.00;99083.78;5041006;28;20485;-80
2023/01/21 08:49:41;;;;;;;8.80;5.47;;;-1.80;99.90;;;-1.41;100.00;99086.50;5039802;28;20866;-80
2023/01/21 08:52:10;;;;;;;10.50;6.00;;;-1.90;99.90;;;-1.44;100.00;99089.25;5040557;28;20575;-80
2023/01/21 08:54:41;;;;;;;9.23;5.67;;;-1.90;99.90;;;-1.37;100.00;99090.56;5042181;28;20518;-80
2023/01/21 08:57:12;;;;;;;12.47;6.10;;;-1.90;99.90;;;-1.35;100.00;99098.97;5040811;28;20465;-80
2023/01/21 08:59:42;;;;;;;9.10;5.90;;;-1.80;99.90;;;-1.31;100.00;99095.34;5040634;28;20552;-80
2023/01/21 09:02:12;;;;;;;12.60;6.83;;;-1.80;99.90;;;-1.36;100.00;99099.91;5039939;28;20538;-80
2023/01/21 09:04:43;;;;;;;10.17;6.70;;;-2.00;99.90;;;-1.34;100.00;99096.34;5040621;28;20464;-81
2023/01/21 09:07:14;;;;;;;8.73;5.83;;;-1.80;99.90;;;-1.35;100.00;99093.84;5041323;28;20571;-80
2023/01/21 09:09:44;;;;;;;12.00;5.83;;;-1.80;99.90;;;-1.36;100.00;99102.47;5038555;28;20492;-79
2023/01/21 09:12:13;;;;;;;11.67;6.47;;;-1.70;99.90;;;-1.34;100.00;99104.03;5038487;28;20519;-81
2023/01/21 09:14:45;;;;;;;9.63;6.30;;;-1.80;99.90;;;-1.42;100.00;99113.88;5038477;28;20969;-80
2023/01/21 09:17:16;;;;;;;9.53;6.20;;;-1.90;99.90;;;-1.47;100.00;99104.81;5037768;28;20471;-80
2023/01/21 09:19:45;;;;;;;7.87;5.83;;;-1.90;99.90;;;-1.42;100.00;99107.97;5038376;28;20816;-81
2023/01/21 09:22:15;;;;;;;10.37;7.43;;;-1.90;99.90;;;-1.46;100.00;99111.59;5039192;28;20462;-81
2023/01/21 09:24:45;;;;;;;14.67;6.63;;;-1.90;99.90;;;-1.41;100.00;99115.56;5040360;28;20470;-81
2023/01/21 09:27:14;;;;;;;9.17;5.60;;;-1.80;99.90;;;-1.42;100.00;99107.97;5041021;28;20498;-81
2023/01/21 09:29:46;;;;;;;10.53;6.50;;;-1.80;99.90;;;-1.39;100.00;99118.88;5041846;28;20470;-81
2023/01/21 09:32:17;;;;;;;25.93;6.93;;;-1.90;99.90;;;-1.33;100.00;99118.53;5041995;28;20526;-81
2023/01/21 09:34:46;;;;;;;12.10;7.00;;;-1.80;99.90;;;-1.32;100.00;99129.63;5040556;28;20501;-81
2023/01/21 09:37:16;;;;;;;9.80;7.13;;;-1.80;99.90;;;-1.26;100.00;99121.56;5039560;28;20519;-81
2023/01/21 09:39:45;;;;;;;13.77;6.27;;;-1.70;99.90;;;-1.22;100.00;99116.19;5041393;28;20462;-81
2023/01/21 09:42:23;;;;;;;11.90;6.60;;;-1.70;99.90;;;-1.20;100.00;99122.03;5039991;28;20519;-81
2023/01/21 09:44:58;;;;;;;9.60;5.70;;;-1.60;99.90;;;-1.21;100.00;99128.06;5039396;28;20508;-81
2023/01/21 09:47:32;;;;;;;9.83;5.80;;;-1.60;99.90;;;-1.15;100.00;99126.91;5041660;28;20501;-80
2023/01/21 09:50:07;;;;;;;10.70;6.17;;;-1.60;99.90;;;-1.07;100.00;99129.84;5041292;28;20457;-81
2023/01/21 09:52:41;;;;;;;13.47;6.40;;;-1.50;99.90;;;-1.01;100.00;99134.66;5040395;28;20461;-81
2023/01/21 09:55:17;;;;;;;13.07;7.20;;;-1.40;99.90;;;-0.94;100.00;99125.69;5039713;28;20496;-81
2023/01/21 09:58:17;;;;;;;11.17;5.90;;;-1.40;99.90;;;-0.97;100.00;99146.38;5039631;28;20495;-81
2023/01/21 10:00:54;;;;;;;14.97;7.03;;;-1.50;99.90;;;-0.89;100.00;99133.94;5037177;28;20457;-81
2023/01/21 10:03:37;;;;;;;12.10;7.33;;;-1.40;99.90;;;-0.81;100.00;99141.19;5040580;28;20469;-81
2023/01/21 10:06:41;;;;;;;13.70;7.67;;;-1.40;99.90;;;-0.76;100.00;99141.75;5041289;28;20548;-81
2023/01/21 10:09:45;;;;;;;18.40;6.80;;;-1.30;99.90;;;-0.75;100.00;99141.66;5034534;28;20473;-81
2023/01/21 10:12:31;;;;;;;17.30;7.73;;;-1.20;99.90;;;-0.71;100.00;99140.56;5037465;28;20980;-80
2023/01/21 10:15:41;;;;;;;14.37;7.00;;;-1.20;99.90;;;-0.64;100.00;99147.00;5039648;28;20497;-79
2023/01/21 10:18:18;;;;;;;15.33;6.60;;;-1.20;99.90;;;-0.62;100.00;99146.91;5041159;28;20472;-80
2023/01/21 10:20:56;;;;;;;12.20;6.50;;;-1.10;99.90;;;-0.57;100.00;99145.72;5040302;28;20469;-80
2023/01/21 10:23:33;;;;;;;13.67;7.20;;;-1.10;99.90;;;-0.52;100.00;99148.84;5039586;28;20957;-80
2023/01/21 10:26:09;;;;;;;10.53;6.57;;;-1.00;99.90;;;-0.47;100.00;99140.03;5041244;28;20472;-80
2023/01/21 10:28:43;;;;;;;16.90;7.80;;;-0.90;99.90;;;-0.43;100.00;99152.63;5040047;28;20465;-80
2023/01/21 10:31:21;;;;;;;12.00;6.53;;;-0.90;99.90;;;-0.38;100.00;99154.94;5040601;28;20501;-80
2023/01/21 10:33:52;;;;;;;10.10;5.97;;;-0.80;99.90;;;-0.35;100.00;99150.44;5040662;28;20514;-80
2023/01/21 10:36:57;;;;;;;7.47;5.47;;;-0.80;99.90;;;-0.27;100.00;99155.09;5037843;28;20994;-80
2023/01/21 10:40:00;;;;;;;14.07;7.27;;;-0.80;99.90;;;-0.22;100.00;99150.50;5040240;28;20455;-79
2023/01/21 10:43:07;;;;;;;15.93;7.63;;;-0.80;99.90;;;-0.18;100.00;99157.13;5040125;28;20956;-80
2023/01/21 10:45:45;;;;;;;11.73;6.87;;;-0.70;99.90;;;-0.21;100.00;99147.03;5041369;28;20465;-80
2023/01/21 10:48:23;;;;;;;13.63;6.33;;;-0.70;99.90;;;-0.16;100.00;99145.00;5038877;28;20485;-79